createdAt,value
2019-03-15T00:01:38.463Z,1.60
2019-03-15T00:04:10.099Z,2.43
2019-03-15T00:06:40.918Z,1.70
2019-03-15T00:09:11.586Z,2.67
2019-03-15T00:11:41.950Z,1.63
2019-03-15T00:14:12.261Z,1.70
2019-03-15T00:16:42.387Z,1.77
2019-03-15T00:19:12.776Z,2.67
2019-03-15T00:21:43.169Z,1.57
2019-03-15T00:24:13.297Z,2.30
2019-03-15T00:26:43.595Z,1.60
2019-03-15T00:29:14.150Z,1.00
2019-03-15T00:31:45.003Z,1.10
2019-03-15T00:34:16.143Z,0.90
2019-03-15T00:36:47.189Z,1.40
2019-03-15T00:39:17.299Z,0.97
2019-03-15T00:41:47.651Z,1.20
2019-03-15T00:44:18.812Z,1.13
2019-03-15T00:46:49.132Z,1.23
2019-03-15T00:49:19.726Z,1.90
2019-03-15T00:51:57.738Z,1.20
2019-03-15T00:54:28.076Z,1.00
2019-03-15T00:56:59.502Z,1.27
2019-03-15T00:59:29.826Z,1.10
2019-03-15T01:02:00.489Z,1.30
2019-03-15T01:04:31.098Z,0.93
2019-03-15T01:07:03.720Z,0.90
2019-03-15T01:09:34.038Z,1.40
2019-03-15T01:12:04.779Z,0.93
2019-03-15T01:14:35.333Z,1.03
2019-03-15T01:17:05.736Z,1.00
2019-03-15T01:19:36.595Z,1.13
2019-03-15T01:22:06.862Z,1.03
2019-03-15T01:24:37.297Z,0.90
2019-03-15T01:27:07.944Z,2.07
2019-03-15T01:29:38.067Z,1.00
2019-03-15T01:32:08.218Z,0.63
2019-03-15T01:34:38.288Z,0.83
2019-03-15T01:37:08.675Z,1.03
2019-03-15T01:39:39.047Z,0.70
2019-03-15T01:42:09.131Z,0.90
2019-03-15T01:44:39.276Z,0.80
2019-03-15T01:47:09.693Z,0.80
2019-03-15T01:49:40.105Z,0.70
2019-03-15T01:52:10.190Z,0.80
2019-03-15T01:54:40.836Z,1.00
2019-03-15T01:57:11.152Z,0.80
2019-03-15T01:59:41.299Z,1.07
2019-03-15T02:02:12.135Z,1.70
2019-03-15T02:04:42.276Z,1.23
2019-03-15T02:07:13.815Z,1.00
2019-03-15T02:09:44.734Z,0.90
2019-03-15T02:12:14.902Z,0.80
2019-03-15T02:14:45.471Z,2.60
2019-03-15T02:17:16.355Z,1.30
2019-03-15T02:19:46.694Z,0.90
2019-03-15T02:22:16.884Z,1.10
2019-03-15T02:24:47.007Z,1.10
2019-03-15T02:27:17.411Z,1.07
2019-03-15T02:29:48.246Z,1.10
2019-03-15T02:32:18.619Z,0.97
2019-03-15T02:34:48.718Z,1.10
2019-03-15T02:37:25.957Z,1.40
2019-03-15T02:39:56.097Z,1.00
2019-03-15T02:42:26.699Z,0.87
2019-03-15T02:44:56.792Z,0.80
2019-03-15T02:47:27.158Z,1.00
2019-03-15T02:49:57.715Z,0.83
2019-03-15T02:52:27.822Z,1.67
2019-03-15T02:54:58.447Z,0.70
2019-03-15T02:57:28.611Z,1.00
2019-03-15T02:59:58.956Z,1.17
2019-03-15T03:02:29.766Z,1.00
2019-03-15T03:05:02.247Z,0.77
2019-03-15T03:07:32.402Z,0.97
2019-03-15T03:10:03.033Z,2.20
2019-03-15T03:12:34.371Z,0.90
2019-03-15T03:15:04.639Z,1.13
2019-03-15T03:17:34.768Z,1.20
2019-03-15T03:20:05.400Z,2.47
2019-03-15T03:22:39.128Z,1.03
2019-03-15T03:25:09.790Z,1.13
2019-03-15T03:27:40.655Z,1.03
2019-03-15T03:30:10.914Z,1.13
2019-03-15T03:32:44.245Z,1.30
2019-03-15T03:35:13.257Z,1.10
2019-03-15T03:37:45.117Z,1.00
2019-03-15T03:40:19.768Z,0.90
2019-03-15T03:42:48.099Z,1.20
2019-03-15T03:45:18.721Z,0.80
2019-03-15T03:47:49.135Z,1.47
2019-03-15T03:50:19.495Z,0.97
2019-03-15T03:52:50.113Z,0.70
2019-03-15T03:55:20.261Z,0.90
2019-03-15T03:57:50.832Z,0.90
2019-03-15T04:00:21.266Z,0.67
2019-03-15T04:02:53.392Z,3.03
2019-03-15T04:05:23.636Z,0.60
2019-03-15T04:07:54.300Z,0.67
2019-03-15T04:10:26.028Z,0.57
2019-03-15T04:12:56.653Z,0.67
2019-03-15T04:15:27.010Z,0.60
2019-03-15T04:17:59.552Z,0.70
2019-03-15T04:20:30.151Z,0.73
2019-03-15T04:23:00.774Z,0.40
2019-03-15T04:25:31.145Z,0.50
2019-03-15T04:28:01.550Z,0.60
2019-03-15T04:30:32.165Z,0.63
2019-03-15T04:33:02.853Z,0.70
2019-03-15T04:35:32.942Z,0.63
2019-03-15T04:38:03.335Z,0.90
2019-03-15T04:40:33.642Z,0.73
2019-03-15T04:43:05.119Z,1.10
2019-03-15T04:45:35.698Z,1.30
2019-03-15T04:48:06.054Z,0.73
2019-03-15T04:50:36.358Z,0.73
2019-03-15T04:53:06.953Z,0.73
2019-03-15T04:55:37.535Z,0.80
2019-03-15T04:58:08.034Z,1.10
2019-03-15T05:00:38.114Z,0.90
2019-03-15T05:03:08.710Z,0.70
2019-03-15T05:05:38.781Z,0.70
2019-03-15T05:08:09.153Z,0.80
2019-03-15T05:10:39.532Z,1.07
2019-03-15T05:13:11.333Z,1.10
2019-03-15T05:15:41.642Z,0.80
2019-03-15T05:18:12.255Z,2.97
2019-03-15T05:20:42.323Z,0.80
2019-03-15T05:23:12.939Z,0.80
2019-03-15T05:25:43.015Z,0.60
2019-03-15T05:28:13.131Z,0.93
2019-03-15T05:30:43.475Z,1.40
2019-03-15T05:33:13.839Z,0.93
2019-03-15T05:35:44.181Z,0.80
2019-03-15T05:38:14.515Z,0.90
2019-03-15T05:40:44.723Z,0.80
2019-03-15T05:43:14.855Z,0.90
2019-03-15T05:45:44.939Z,1.10
2019-03-15T05:48:15.304Z,0.67
2019-03-15T05:50:45.386Z,1.43
2019-03-15T05:53:15.862Z,0.90
2019-03-15T05:55:45.945Z,0.90
2019-03-15T05:58:16.586Z,1.10
2019-03-15T06:00:46.667Z,0.90
2019-03-15T06:03:17.030Z,0.90
2019-03-15T06:05:47.380Z,0.83
2019-03-15T06:08:17.526Z,1.20
2019-03-15T06:10:47.687Z,1.80
2019-03-15T06:13:18.068Z,1.80
2019-03-15T06:15:48.145Z,1.50
2019-03-15T06:18:18.769Z,1.10
2019-03-15T06:20:50.053Z,1.13
2019-03-15T06:23:20.185Z,2.10
2019-03-15T06:25:50.550Z,1.33
2019-03-15T06:28:21.140Z,1.53
2019-03-15T06:30:51.555Z,0.90
2019-03-15T06:33:22.115Z,0.90
2019-03-15T06:35:52.556Z,1.90
2019-03-15T06:38:22.628Z,1.43
2019-03-15T06:40:53.001Z,1.00
2019-03-15T06:43:23.674Z,1.03
2019-03-15T06:45:53.774Z,0.80
2019-03-15T06:48:24.150Z,1.23
2019-03-15T06:50:54.309Z,1.70
2019-03-15T06:53:25.170Z,1.20
2019-03-15T06:55:55.722Z,0.80
2019-03-15T06:58:27.082Z,0.90
2019-03-15T07:00:57.566Z,0.80
2019-03-15T07:03:27.934Z,0.90
2019-03-15T07:05:58.350Z,0.70
2019-03-15T07:08:28.740Z,1.00
2019-03-15T07:10:59.079Z,1.20
2019-03-15T07:13:29.699Z,1.03
2019-03-15T07:15:59.862Z,1.40
2019-03-15T07:18:29.969Z,1.00
2019-03-15T07:21:00.055Z,1.30
2019-03-15T07:23:30.646Z,1.53
2019-03-15T07:26:00.987Z,1.67
2019-03-15T07:28:31.360Z,1.50
2019-03-15T07:31:01.585Z,1.10
2019-03-15T07:33:32.453Z,1.67
2019-03-15T07:36:02.775Z,1.60
2019-03-15T07:38:33.347Z,1.83
2019-03-15T07:41:03.682Z,1.23
2019-03-15T07:43:34.052Z,1.03
2019-03-15T07:46:04.135Z,0.90
2019-03-15T07:48:38.148Z,1.30
2019-03-15T07:51:08.235Z,1.30
2019-03-15T07:53:38.335Z,1.13
2019-03-15T07:56:08.914Z,1.97
2019-03-15T07:58:39.278Z,1.43
2019-03-15T08:01:09.719Z,0.90
2019-03-15T08:03:40.107Z,1.00
2019-03-15T08:06:10.456Z,0.80
2019-03-15T08:08:40.671Z,0.70
2019-03-15T08:11:11.124Z,0.80
2019-03-15T08:13:42.573Z,0.90
2019-03-15T08:16:12.666Z,0.90
2019-03-15T08:18:43.048Z,1.47
2019-03-15T08:21:13.391Z,1.53
2019-03-15T08:23:43.486Z,2.03
2019-03-15T08:26:13.575Z,1.13
2019-03-15T08:28:45.094Z,1.27
2019-03-15T08:31:15.664Z,2.23
2019-03-15T08:33:46.253Z,1.30
2019-03-15T08:36:19.888Z,1.77
2019-03-15T08:38:48.666Z,3.90
2019-03-15T08:41:19.239Z,2.00
2019-03-15T08:43:49.377Z,2.47
2019-03-15T08:46:19.701Z,1.50
2019-03-15T08:48:49.906Z,1.20
2019-03-15T08:51:20.080Z,2.03
2019-03-15T08:53:50.430Z,1.60
2019-03-15T08:56:20.792Z,1.83
2019-03-15T08:58:52.082Z,1.70
2019-03-15T09:01:24.019Z,1.27
2019-03-15T09:03:54.419Z,1.00
2019-03-15T09:06:24.769Z,1.37
2019-03-15T09:08:55.137Z,1.20
2019-03-15T09:11:25.503Z,1.10
2019-03-15T09:13:55.672Z,1.27
2019-03-15T09:16:26.083Z,1.10
2019-03-15T09:18:56.697Z,1.07
2019-03-15T09:21:26.774Z,1.63
2019-03-15T09:23:56.906Z,0.90
2019-03-15T09:26:27.212Z,1.33
2019-03-15T09:28:57.563Z,1.10
2019-03-15T09:31:27.692Z,1.10
2019-03-15T09:33:59.021Z,0.80
2019-03-15T09:36:29.397Z,0.90
2019-03-15T09:38:59.943Z,1.10
2019-03-15T09:41:33.467Z,1.10
2019-03-15T09:44:02.415Z,1.17
2019-03-15T09:46:32.506Z,1.00
2019-03-15T09:49:03.021Z,1.10
2019-03-15T09:51:33.383Z,1.00
2019-03-15T09:54:03.781Z,1.00
2019-03-15T09:56:33.891Z,1.10
2019-03-15T09:59:04.462Z,1.13
2019-03-15T10:01:35.673Z,1.83
2019-03-15T10:04:06.476Z,1.00
2019-03-15T10:06:36.874Z,2.47
2019-03-15T10:09:07.612Z,1.30
2019-03-15T10:11:38.017Z,1.57
2019-03-15T10:14:08.366Z,1.37
2019-03-15T10:16:38.958Z,1.20
2019-03-15T10:19:09.073Z,1.70
2019-03-15T10:21:39.161Z,1.57
2019-03-15T10:24:09.486Z,1.30
2019-03-15T10:26:39.861Z,0.77
2019-03-15T10:29:15.451Z,2.03
2019-03-15T10:31:42.296Z,1.20
2019-03-15T10:34:12.468Z,1.73
2019-03-15T10:36:43.124Z,1.80
2019-03-15T10:39:13.220Z,1.90
2019-03-15T10:41:43.812Z,1.47
2019-03-15T10:44:14.856Z,2.03
2019-03-15T10:46:44.965Z,2.70
2019-03-15T10:49:15.823Z,1.63
2019-03-15T10:51:46.003Z,3.07
2019-03-15T10:54:16.108Z,3.63
2019-03-15T10:56:46.790Z,2.33
2019-03-15T10:59:16.885Z,3.80
2019-03-15T11:01:47.018Z,4.77
2019-03-15T11:04:17.360Z,4.37
2019-03-15T11:06:47.722Z,3.30
2019-03-15T11:09:18.022Z,3.83
2019-03-15T11:11:48.388Z,3.87
2019-03-15T11:14:18.777Z,3.70
2019-03-15T11:16:49.107Z,2.27
2019-03-15T11:19:19.483Z,2.70
2019-03-15T11:21:49.586Z,3.90
2019-03-15T11:24:19.718Z,3.40
2019-03-15T11:26:50.555Z,2.20
2019-03-15T11:29:20.945Z,1.80
2019-03-15T11:31:51.046Z,2.40
2019-03-15T11:34:22.031Z,2.50
2019-03-15T11:36:58.136Z,1.40
2019-03-15T11:39:24.764Z,2.30
2019-03-15T11:41:55.122Z,2.30
2019-03-15T11:44:25.277Z,1.97
2019-03-15T11:46:56.080Z,1.83
2019-03-15T11:49:28.378Z,2.13
2019-03-15T11:51:58.931Z,1.90
2019-03-15T11:54:29.403Z,5.17
2019-03-15T11:57:00.756Z,2.03
2019-03-15T11:59:31.490Z,2.10
2019-03-15T12:02:04.355Z,2.60
2019-03-15T12:04:33.906Z,2.67
2019-03-15T12:07:05.080Z,1.50
2019-03-15T12:09:35.648Z,1.10
2019-03-15T12:12:06.003Z,1.30
2019-03-15T12:14:41.178Z,1.80
2019-03-15T12:17:08.954Z,1.00
2019-03-15T12:19:39.119Z,1.17
2019-03-15T12:22:09.853Z,1.47
2019-03-15T12:24:39.940Z,1.40
2019-03-15T12:27:10.427Z,3.00
2019-03-15T12:29:41.848Z,2.03
2019-03-15T12:32:12.523Z,1.60
2019-03-15T12:34:42.622Z,1.43
2019-03-15T12:37:13.327Z,1.60
2019-03-15T12:39:43.720Z,1.60
2019-03-15T12:42:14.123Z,1.27
2019-03-15T12:44:44.457Z,1.07
2019-03-15T12:47:14.642Z,1.30
2019-03-15T12:49:45.075Z,2.07
2019-03-15T12:52:15.139Z,1.90
2019-03-15T12:54:45.776Z,1.23
2019-03-15T12:57:16.184Z,1.63
2019-03-15T12:59:46.552Z,1.80
2019-03-15T13:02:20.084Z,2.70
2019-03-15T13:04:51.950Z,1.70
2019-03-15T13:07:21.268Z,2.20
2019-03-15T13:09:51.891Z,1.93
2019-03-15T13:12:22.230Z,1.20
2019-03-15T13:14:52.799Z,2.33
2019-03-15T13:17:23.115Z,2.27
2019-03-15T13:19:55.409Z,1.80
2019-03-15T13:22:25.527Z,2.60
2019-03-15T13:24:56.884Z,2.07
2019-03-15T13:27:27.298Z,2.33
2019-03-15T13:29:57.764Z,2.50
2019-03-15T13:32:28.109Z,4.40
2019-03-15T13:34:58.514Z,3.10
2019-03-15T13:37:28.849Z,2.00
2019-03-15T13:39:59.484Z,2.13
2019-03-15T13:42:29.873Z,1.80
2019-03-15T13:45:00.414Z,1.70
2019-03-15T13:47:31.068Z,4.17
2019-03-15T13:50:01.632Z,1.60
2019-03-15T13:52:32.336Z,2.23
2019-03-15T13:55:02.440Z,2.73
2019-03-15T13:57:33.125Z,2.03
2019-03-15T14:00:03.482Z,1.97
2019-03-15T14:02:34.057Z,2.13
2019-03-15T14:05:04.907Z,2.50
2019-03-15T14:07:35.676Z,1.30
2019-03-15T14:10:06.324Z,2.30
2019-03-15T14:12:36.694Z,2.17
2019-03-15T14:15:08.598Z,1.83
2019-03-15T14:17:39.189Z,1.47
2019-03-15T14:20:10.014Z,1.30
2019-03-15T14:22:40.598Z,1.90
2019-03-15T14:25:11.303Z,1.80
2019-03-15T14:27:41.925Z,2.03
2019-03-15T14:30:12.682Z,1.60
2019-03-15T14:32:42.787Z,2.10
2019-03-15T14:35:13.275Z,2.70
2019-03-15T14:37:43.858Z,2.60
2019-03-15T14:40:14.631Z,1.70
2019-03-15T14:42:45.953Z,1.90
2019-03-15T14:45:16.518Z,2.50
2019-03-15T14:47:47.778Z,2.27
2019-03-15T14:50:18.117Z,2.67
2019-03-15T14:52:48.206Z,2.87
2019-03-15T14:55:19.273Z,2.37
2019-03-15T14:57:53.632Z,3.30
2019-03-15T15:00:21.689Z,3.00
2019-03-15T15:02:52.286Z,3.50
2019-03-15T15:05:22.832Z,3.50
2019-03-15T15:07:53.145Z,3.60
2019-03-15T15:10:23.264Z,4.13
2019-03-15T15:12:53.346Z,4.77
2019-03-15T15:15:23.474Z,3.90
2019-03-15T15:17:54.030Z,4.10
2019-03-15T15:20:24.639Z,4.27
2019-03-15T15:22:55.033Z,3.87
2019-03-15T15:25:25.624Z,3.90
2019-03-15T15:28:04.393Z,3.37
2019-03-15T15:30:28.016Z,4.27
2019-03-15T15:32:58.334Z,4.60
2019-03-15T15:35:28.707Z,3.20
2019-03-15T15:37:59.313Z,3.53
2019-03-15T15:40:29.739Z,4.60
2019-03-15T15:43:00.352Z,3.60
2019-03-15T15:45:30.451Z,5.50
2019-03-15T15:48:01.098Z,3.93
2019-03-15T15:50:31.447Z,4.20
2019-03-15T15:53:02.061Z,4.67
2019-03-15T15:55:32.261Z,3.60
2019-03-15T15:58:02.898Z,3.70
2019-03-15T16:00:32.975Z,4.30
2019-03-15T16:03:03.140Z,3.60
2019-03-15T16:05:33.826Z,4.03
2019-03-15T16:08:03.951Z,4.17
2019-03-15T16:10:34.014Z,2.87
2019-03-15T16:13:16.387Z,3.53
2019-03-15T16:15:36.724Z,4.40
2019-03-15T16:18:06.839Z,4.23
2019-03-15T16:20:37.398Z,4.67
2019-03-15T16:23:07.584Z,4.30
2019-03-15T16:25:38.143Z,3.73
2019-03-15T16:28:08.572Z,3.90
2019-03-15T16:30:39.154Z,3.27
2019-03-15T16:33:09.483Z,3.97
2019-03-15T16:35:40.897Z,3.03
2019-03-15T16:38:11.523Z,3.50
2019-03-15T16:40:41.815Z,3.50
2019-03-15T16:43:11.902Z,2.87
2019-03-15T16:45:41.991Z,2.67
2019-03-15T16:48:12.590Z,2.77
2019-03-15T16:50:43.184Z,3.13
2019-03-15T16:53:13.558Z,4.37
2019-03-15T16:55:44.629Z,2.93
2019-03-15T16:58:15.001Z,2.90
2019-03-15T17:00:45.665Z,3.40
2019-03-15T17:03:16.303Z,4.03
2019-03-15T17:05:46.350Z,3.20
2019-03-15T17:08:17.194Z,2.80
2019-03-15T17:10:47.294Z,2.57
2019-03-15T17:13:17.672Z,2.47
2019-03-15T17:15:48.267Z,3.57
2019-03-15T17:18:18.889Z,3.10
2019-03-15T17:20:49.277Z,2.80
2019-03-15T17:23:19.640Z,3.47
2019-03-15T17:25:50.021Z,3.47
2019-03-15T17:28:20.622Z,3.40
2019-03-15T17:30:50.948Z,3.73
2019-03-15T17:33:21.602Z,3.10
2019-03-15T17:35:51.895Z,3.60
2019-03-15T17:38:25.262Z,3.10
2019-03-15T17:40:55.861Z,2.73
2019-03-15T17:43:29.331Z,3.10
2019-03-15T17:46:01.123Z,2.60
2019-03-15T17:48:40.519Z,3.87
2019-03-15T17:51:10.595Z,3.80
2019-03-15T17:53:40.981Z,3.10
2019-03-15T17:56:11.154Z,2.40
2019-03-15T17:58:42.034Z,2.57
2019-03-15T18:01:12.652Z,1.80
2019-03-15T18:03:47.295Z,2.00
2019-03-15T18:06:16.899Z,1.87
2019-03-15T18:08:47.494Z,1.43
2019-03-15T18:11:17.854Z,2.40
2019-03-15T18:13:49.239Z,1.80
2019-03-15T18:16:19.303Z,1.70
2019-03-15T18:18:49.644Z,2.03
2019-03-15T18:21:26.658Z,1.60
2019-03-15T18:23:57.027Z,1.20
2019-03-15T18:26:27.622Z,1.30
2019-03-15T18:28:57.967Z,1.30
2019-03-15T18:31:28.855Z,1.13
2019-03-15T18:33:59.361Z,1.00
2019-03-15T18:36:31.326Z,1.00
2019-03-15T18:39:01.816Z,1.23
2019-03-15T18:41:33.152Z,1.30
2019-03-15T18:44:03.430Z,0.70
2019-03-15T18:46:33.550Z,0.90
2019-03-15T18:49:04.252Z,0.70
2019-03-15T18:51:35.853Z,0.97
2019-03-15T18:54:17.090Z,0.90
2019-03-15T18:56:38.263Z,0.50
2019-03-15T18:59:08.735Z,1.00
2019-03-15T19:01:39.012Z,0.80
2019-03-15T19:04:09.401Z,0.70
2019-03-15T19:06:40.091Z,0.80
2019-03-15T19:09:10.185Z,0.80
2019-03-15T19:11:40.395Z,0.83
2019-03-15T19:14:10.551Z,0.60
2019-03-15T19:16:40.991Z,0.80
2019-03-15T19:19:11.082Z,0.70
2019-03-15T19:21:41.451Z,0.90
2019-03-15T19:24:12.331Z,0.80
2019-03-15T19:26:42.709Z,0.80
2019-03-15T19:29:13.806Z,0.90
2019-03-15T19:31:43.877Z,0.70
2019-03-15T19:34:14.627Z,0.50
2019-03-15T19:36:44.991Z,0.70
2019-03-15T19:39:15.503Z,0.77
2019-03-15T19:41:46.072Z,0.90
2019-03-15T19:44:16.915Z,1.90
2019-03-15T19:46:50.359Z,0.60
2019-03-15T19:49:20.482Z,0.87
2019-03-15T19:51:50.580Z,0.50
2019-03-15T19:54:21.010Z,0.60
2019-03-15T19:56:51.588Z,0.60
2019-03-15T19:59:22.270Z,0.50
2019-03-15T20:01:52.638Z,0.70
2019-03-15T20:04:23.055Z,0.70
2019-03-15T20:06:53.371Z,0.50
2019-03-15T20:09:24.090Z,0.50
2019-03-15T20:11:54.413Z,0.60
2019-03-15T20:14:25.041Z,0.63
2019-03-15T20:16:55.418Z,0.70
2019-03-15T20:19:25.795Z,0.50
2019-03-15T20:21:55.960Z,0.50
2019-03-15T20:24:26.584Z,0.60
2019-03-15T20:26:57.173Z,0.60
2019-03-15T20:29:27.316Z,0.70
2019-03-15T20:31:57.695Z,0.60
2019-03-15T20:34:29.299Z,0.60
2019-03-15T20:36:59.737Z,1.43
2019-03-15T20:39:30.102Z,0.60
2019-03-15T20:42:00.165Z,0.60
2019-03-15T20:44:30.318Z,0.60
2019-03-15T20:47:00.972Z,0.50
2019-03-15T20:49:31.611Z,0.80
2019-03-15T20:52:01.737Z,0.70
2019-03-15T20:54:31.818Z,0.50
2019-03-15T20:57:02.960Z,0.60
2019-03-15T20:59:33.744Z,0.80
2019-03-15T21:02:03.960Z,0.97
2019-03-15T21:04:34.106Z,0.70
2019-03-15T21:07:05.634Z,0.53
2019-03-15T21:09:35.713Z,0.80
2019-03-15T21:12:06.112Z,0.50
2019-03-15T21:14:36.447Z,0.40
2019-03-15T21:17:13.553Z,0.50
2019-03-15T21:19:43.520Z,0.70
2019-03-15T21:22:14.106Z,0.90
2019-03-15T21:24:44.175Z,0.60
2019-03-15T21:27:14.552Z,0.80
2019-03-15T21:29:44.894Z,0.80
2019-03-15T21:32:15.528Z,1.00
2019-03-15T21:34:46.002Z,0.80
2019-03-15T21:37:16.123Z,0.60
2019-03-15T21:39:47.038Z,1.00
2019-03-15T21:42:17.866Z,0.80
2019-03-15T21:44:47.983Z,1.17
2019-03-15T21:47:18.629Z,1.00
2019-03-15T21:49:48.824Z,0.80
2019-03-15T21:52:19.141Z,0.70
2019-03-15T21:54:49.276Z,0.90
2019-03-15T21:57:19.378Z,0.90
2019-03-15T21:59:50.192Z,1.00
2019-03-15T22:02:20.808Z,1.73
2019-03-15T22:04:50.918Z,0.70
2019-03-15T22:07:21.428Z,1.17
2019-03-15T22:09:55.058Z,0.70
2019-03-15T22:12:23.995Z,1.20
2019-03-15T22:14:54.855Z,1.07
2019-03-15T22:17:25.743Z,1.10
2019-03-15T22:19:55.821Z,0.40
2019-03-15T22:22:27.160Z,0.70
2019-03-15T22:24:57.844Z,0.80
2019-03-15T22:27:28.225Z,1.07
2019-03-15T22:29:58.808Z,1.00
2019-03-15T22:32:29.409Z,0.90
2019-03-15T22:34:59.798Z,0.53
2019-03-15T22:37:30.649Z,0.63
2019-03-15T22:40:01.088Z,0.80
2019-03-15T22:42:31.870Z,0.73
2019-03-15T22:45:02.004Z,1.03
2019-03-15T22:47:32.311Z,0.70
2019-03-15T22:50:02.606Z,0.70
2019-03-15T22:52:33.157Z,0.60
2019-03-15T22:55:03.247Z,1.07
2019-03-15T22:57:33.797Z,0.80
2019-03-15T23:00:05.692Z,0.70
2019-03-15T23:02:37.419Z,0.80
2019-03-15T23:05:08.015Z,0.60
2019-03-15T23:07:38.279Z,0.70
2019-03-15T23:10:08.905Z,0.70
2019-03-15T23:12:39.067Z,0.93
2019-03-15T23:15:09.507Z,0.73
2019-03-15T23:17:40.135Z,1.47
2019-03-15T23:20:10.480Z,0.83
2019-03-15T23:22:41.282Z,0.77
2019-03-15T23:25:11.787Z,1.20
2019-03-15T23:27:42.352Z,0.67
2019-03-15T23:30:12.092Z,0.90
2019-03-15T23:32:42.117Z,1.20
2019-03-15T23:35:12.501Z,0.97
2019-03-15T23:37:42.621Z,1.40
2019-03-15T23:40:12.887Z,1.17
2019-03-15T23:42:43.562Z,1.37
2019-03-15T23:45:14.627Z,0.80
2019-03-15T23:47:45.570Z,1.17
2019-03-15T23:50:16.173Z,1.20
2019-03-15T23:52:46.977Z,0.60
2019-03-15T23:55:17.543Z,1.00
2019-03-15T23:57:48.150Z,1.37
